Golden Empress — VRHM9 — position and weather

sailwx.info

Track history (hours):
 
Tides and Currents Weather Stations Pressure Air Temp Water Temp Dewpoint Dewpoint Depression Visibility Wind Speed Wind Dir Waves Ship Positions

Golden Empress

Last reported at 2017-Sep-15 08:03 UTC. Time now 2017-Sep-19 18:45 UTC.
Position N 36°49' W 075°42'.

Length 229 m; draft 14.4 m.

Type: Cargo ship. MMSI: 477962300.

Date/timePositionNaut miles runAvg speedWind from/ knotsBaromVisibWave heightAir tempDewpointWater temp
2017-Sep-15 08:03N 36°49' W 075°42'011.5
2017-Sep-15 08:00N 36°49' W 075°43'610.8
2017-Sep-15 07:28N 36°51' W 075°50'510.9
2017-Sep-15 07:00N 36°54' W 075°55'510.0
2017-Sep-15 06:30N 36°58' W 075°59'4 8.4
2017-Sep-15 06:00N 37°01' W 076°03'4 9.0
2017-Sep-15 05:30N 37°05' W 076°06'5 9.2
2017-Sep-15 04:59N 37°09' W 076°09'9 9.4
2017-Sep-15 04:00N 37°18' W 076°07'3810.1
2017-Sep-15 00:15N 37°56' W 076°10'410.8
2017-Sep-14 23:55N 37°59' W 076°12'511.8
2017-Sep-14 23:29N 38°04' W 076°13'712.2
2017-Sep-14 22:57N 38°10' W 076°14'2812.5
2017-Sep-14 20:41N 38°37' W 076°25'212.4
2017-Sep-14 20:30N 38°39' W 076°25'612.6
2017-Sep-14 20:01N 38°46' W 076°26'612.7
2017-Sep-14 19:31N 38°52' W 076°24'611.9
2017-Sep-14 19:00N 38°58' W 076°23'5 9.1
2017-Sep-14 18:31N 39°02' W 076°23'4 8.5
2017-Sep-14 18:01N 39°06' W 076°24'4 8.5
2017-Sep-14 17:31N 39°10' W 076°26'4 8.9
2017-Sep-14 17:01N 39°12' W 076°31'3 5.1
2017-Sep-14 16:31N 39°13' W 076°34'0 0.8
2017-Sep-14 15:59N 39°13' W 076°35'0 0.0
2017-Sep-14 15:29N 39°13' W 076°35'0 0.0
2017-Sep-14 14:59N 39°13' W 076°35'0 0.0
2017-Sep-14 14:29N 39°13' W 076°35'0 0.0
2017-Sep-14 13:59N 39°13' W 076°35'0 0.0
2017-Sep-14 13:29N 39°13' W 076°35'0 0.0
2017-Sep-14 12:59N 39°13' W 076°35'0 0.0
2017-Sep-14 12:29N 39°13' W 076°35'0 0.0
2017-Sep-14 11:59N 39°13' W 076°35'0 0.0
2017-Sep-14 11:29N 39°13' W 076°35'0 0.0
2017-Sep-14 10:59N 39°13' W 076°35'0 0.0
2017-Sep-14 10:29N 39°13' W 076°35'0 0.0
2017-Sep-14 09:59N 39°13' W 076°35'0 0.0
2017-Sep-14 09:29N 39°13' W 076°35'0 0.0
2017-Sep-14 08:59N 39°13' W 076°35'0 0.0
2017-Sep-14 08:29N 39°13' W 076°35'0 0.0
2017-Sep-14 07:59N 39°13' W 076°35'0 0.0
2017-Sep-14 07:29N 39°13' W 076°35'0 0.0
2017-Sep-14 06:59N 39°13' W 076°35'0 0.0
2017-Sep-14 06:29N 39°13' W 076°35'0 0.0
2017-Sep-14 05:59N 39°13' W 076°35'0 0.0
2017-Sep-14 05:29N 39°13' W 076°35'0 0.0
2017-Sep-14 04:59N 39°13' W 076°35'0 0.0
2017-Sep-14 04:29N 39°13' W 076°35'0 0.0
2017-Sep-14 03:59N 39°13' W 076°35'0 0.0
2017-Sep-14 03:29N 39°13' W 076°35'0 0.0
2017-Sep-14 02:59N 39°13' W 076°35'0 0.0
2017-Sep-14 02:29N 39°13' W 076°35'0 0.0
2017-Sep-14 01:59N 39°13' W 076°35'0 0.0
2017-Sep-14 01:29N 39°13' W 076°35'0 0.0
2017-Sep-14 00:59N 39°13' W 076°35'0 0.0
2017-Sep-14 00:29N 39°13' W 076°35'0 0.0
2017-Sep-13 23:59N 39°13' W 076°35'0 0.0
2017-Sep-13 23:29N 39°13' W 076°35'0 0.0
2017-Sep-13 22:59N 39°13' W 076°35'0 0.0
2017-Sep-13 22:29N 39°13' W 076°35'0 0.0
2017-Sep-13 21:59N 39°13' W 076°35'0 0.0
2017-Sep-13 21:29N 39°13' W 076°35'0 0.0
2017-Sep-13 20:59N 39°13' W 076°35'0 0.0
2017-Sep-13 20:29N 39°13' W 076°35'0 0.0
2017-Sep-13 19:59N 39°13' W 076°35'0 0.0
2017-Sep-13 19:29N 39°13' W 076°35'0 0.0
2017-Sep-13 18:59N 39°13' W 076°35'0 0.0
2017-Sep-13 18:29N 39°13' W 076°35'0 0.0
2017-Sep-13 17:59N 39°13' W 076°35'0 0.0
2017-Sep-13 17:29N 39°13' W 076°35'0 0.0
2017-Sep-13 16:59N 39°13' W 076°35'0 0.0
2017-Sep-13 16:29N 39°13' W 076°35'0 0.0
2017-Sep-13 15:59N 39°13' W 076°35'0 0.0
2017-Sep-13 15:29N 39°13' W 076°35'0 0.0
2017-Sep-13 14:59N 39°13' W 076°35'0 0.0
2017-Sep-13 14:29N 39°13' W 076°35'0 0.0
2017-Sep-13 13:59N 39°13' W 076°35'0 0.0
2017-Sep-13 13:29N 39°13' W 076°35'0 0.0
2017-Sep-13 12:59N 39°13' W 076°35'0 0.0
2017-Sep-13 12:29N 39°13' W 076°35'0 0.0
2017-Sep-13 11:59N 39°13' W 076°35'0 0.0
2017-Sep-13 11:29N 39°13' W 076°35'0 0.0
2017-Sep-13 10:59N 39°13' W 076°35'0 0.0
2017-Sep-13 10:29N 39°13' W 076°35'0 0.0
2017-Sep-13 09:59N 39°13' W 076°35'0 0.0
2017-Sep-13 09:29N 39°13' W 076°35'0 0.0
2017-Sep-13 08:59N 39°13' W 076°35'0 0.0
2017-Sep-13 08:29N 39°13' W 076°35'0 0.0
2017-Sep-13 07:59N 39°13' W 076°35'0 0.0
2017-Sep-13 07:29N 39°13' W 076°35'0 0.0
2017-Sep-13 06:59N 39°13' W 076°35'0 0.0
2017-Sep-13 06:29N 39°13' W 076°35'0 0.0
2017-Sep-13 05:59N 39°13' W 076°35'0 0.0
2017-Sep-13 05:29N 39°13' W 076°35'0 0.0
2017-Sep-13 04:59N 39°13' W 076°35'0 0.0
2017-Sep-13 04:29N 39°13' W 076°35'0 0.0
2017-Sep-13 03:59N 39°13' W 076°35'0 0.0
2017-Sep-13 03:29N 39°13' W 076°35'0 0.0
2017-Sep-13 02:59N 39°13' W 076°35'0 0.0
2017-Sep-13 02:29N 39°13' W 076°35'0 0.0
2017-Sep-13 01:59N 39°13' W 076°35'0 0.0
2017-Sep-13 01:29N 39°13' W 076°35'0 0.0
2017-Sep-13 00:59N 39°13' W 076°35'0 0.0
2017-Sep-13 00:29N 39°13' W 076°35'0 0.0
2017-Sep-12 23:59N 39°13' W 076°35'0 0.0
2017-Sep-12 23:29N 39°13' W 076°35'0 0.0
2017-Sep-12 22:59N 39°13' W 076°35'0 0.0
2017-Sep-12 22:29N 39°13' W 076°35'0 0.0
2017-Sep-12 21:59N 39°13' W 076°35'0 0.0
2017-Sep-12 21:29N 39°13' W 076°35'0 0.0
2017-Sep-12 20:59N 39°13' W 076°35'0 0.0
2017-Sep-12 20:29N 39°13' W 076°35'0 0.0
2017-Sep-12 19:59N 39°13' W 076°35'0 0.0
2017-Sep-12 19:29N 39°13' W 076°35'0 0.0
2017-Sep-12 18:59N 39°13' W 076°35'0 0.0
2017-Sep-12 18:29N 39°13' W 076°35'0 0.0
2017-Sep-12 17:59N 39°13' W 076°35'0 0.0
2017-Sep-12 17:29N 39°13' W 076°35'0 0.0
2017-Sep-12 16:59N 39°13' W 076°35'0 0.0
2017-Sep-12 16:29N 39°13' W 076°35'0 0.0
2017-Sep-12 15:59N 39°13' W 076°35'0 0.0
2017-Sep-12 15:29N 39°13' W 076°35'0 0.0
2017-Sep-12 14:59N 39°13' W 076°35'0 0.0
2017-Sep-12 14:29N 39°13' W 076°35'0 0.0
2017-Sep-12 13:56N 39°13' W 076°35'0 0.0
2017-Sep-12 13:29N 39°13' W 076°35'0 0.0
2017-Sep-12 12:59N 39°13' W 076°35'0 0.0
2017-Sep-12 12:29N 39°13' W 076°35'0 0.0
2017-Sep-12 11:59N 39°13' W 076°35'0 0.0
2017-Sep-12 11:29N 39°13' W 076°35'0 0.0
2017-Sep-12 10:59N 39°13' W 076°35'0 0.0
2017-Sep-12 10:29N 39°13' W 076°35'0 0.0
2017-Sep-12 09:59N 39°13' W 076°35'0 0.0
2017-Sep-12 09:29N 39°13' W 076°35'0 0.0
2017-Sep-12 08:59N 39°13' W 076°35'0 0.0
2017-Sep-12 08:29N 39°13' W 076°35'0 0.0
2017-Sep-12 07:59N 39°13' W 076°35'0 0.0
2017-Sep-12 07:29N 39°13' W 076°35'0 0.0
2017-Sep-12 06:59N 39°13' W 076°35'0 0.0
2017-Sep-12 06:29N 39°13' W 076°35'0 0.0
2017-Sep-12 05:59N 39°13' W 076°35'0 0.0
2017-Sep-12 05:29N 39°13' W 076°35'0 0.0
2017-Sep-12 04:59N 39°13' W 076°35'0 0.0
2017-Sep-12 04:29N 39°13' W 076°35'0 0.0
2017-Sep-12 03:59N 39°13' W 076°35'0 0.0
2017-Sep-12 03:29N 39°13' W 076°35'0 0.0
2017-Sep-12 02:59N 39°13' W 076°35'0 0.0
2017-Sep-12 02:29N 39°13' W 076°35'0 0.0
2017-Sep-12 01:59N 39°13' W 076°35'0 0.0
2017-Sep-12 01:29N 39°13' W 076°35'0 0.0
2017-Sep-12 00:59N 39°13' W 076°35'0 0.0
2017-Sep-12 00:29N 39°13' W 076°35'0 0.0
2017-Sep-11 23:59N 39°13' W 076°35'0 0.0
2017-Sep-11 23:29N 39°13' W 076°35'0 0.0
2017-Sep-11 22:59N 39°13' W 076°35'0 0.0
2017-Sep-11 22:29N 39°13' W 076°35'0 0.0
2017-Sep-11 21:59N 39°13' W 076°35'0 0.0
2017-Sep-11 21:29N 39°13' W 076°35'0 0.0
2017-Sep-11 20:59N 39°13' W 076°35'0 0.0
2017-Sep-11 20:29N 39°13' W 076°35'0 0.0
2017-Sep-11 19:59N 39°13' W 076°35'0 0.0
2017-Sep-11 19:29N 39°13' W 076°35'0 0.0
2017-Sep-11 18:59N 39°13' W 076°35'0 0.0
2017-Sep-11 18:29N 39°13' W 076°35'0 0.0
2017-Sep-11 17:59N 39°13' W 076°35'0 0.0
2017-Sep-11 17:29N 39°13' W 076°35'0 0.0
2017-Sep-11 16:59N 39°13' W 076°35'0 0.0
2017-Sep-11 16:29N 39°13' W 076°35'0 0.0
2017-Sep-11 15:59N 39°13' W 076°35'0 0.0
2017-Sep-11 15:29N 39°13' W 076°35'0 0.0
2017-Sep-11 14:59N 39°13' W 076°35'0 0.0
2017-Sep-11 14:29N 39°13' W 076°35'0 0.0
2017-Sep-11 13:59N 39°13' W 076°35'0 0.0
2017-Sep-11 13:29N 39°13' W 076°35'0 0.0
2017-Sep-11 12:59N 39°13' W 076°35'0 0.0
2017-Sep-11 12:29N 39°13' W 076°35'0 0.0
2017-Sep-11 11:59N 39°13' W 076°35'0 0.0
2017-Sep-11 11:29N 39°13' W 076°35'0 0.0
2017-Sep-11 10:59N 39°13' W 076°35'0 0.0
2017-Sep-11 10:29N 39°13' W 076°35'0 0.0
2017-Sep-11 09:59N 39°13' W 076°35'0 0.0
2017-Sep-11 09:29N 39°13' W 076°35'0 0.1
2017-Sep-11 09:01N 39°13' W 076°35'2 3.2
2017-Sep-11 08:31N 39°13' W 076°32'4 7.4
2017-Sep-11 08:01N 39°11' W 076°28'612.0
2017-Sep-11 07:31N 39°07' W 076°24'713.3
2017-Sep-11 07:01N 39°00' W 076°23'4 7.2
2017-Sep-11 06:31N 38°57' W 076°24'0 0.2
2017-Sep-11 05:58N 38°56' W 076°24'0 0.0
2017-Sep-11 05:28N 38°56' W 076°24'0 0.0
2017-Sep-11 04:58N 38°56' W 076°24'0 0.1
2017-Sep-11 04:28N 38°56' W 076°24'0 0.1
2017-Sep-11 03:58N 38°56' W 076°24'0 0.3
2017-Sep-11 03:28N 38°57' W 076°24'0 0.1
2017-Sep-11 02:58N 38°57' W 076°24'0 0.1
2017-Sep-11 02:28N 38°57' W 076°24'0 0.1
2017-Sep-11 01:58N 38°57' W 076°24'0 0.0
2017-Sep-11 01:28N 38°57' W 076°24'0 0.0
2017-Sep-11 00:58N 38°57' W 076°24'0 0.2
2017-Sep-11 00:28N 38°57' W 076°24'0 0.3
2017-Sep-10 23:58N 38°57' W 076°24'0 0.2
2017-Sep-10 23:28N 38°56' W 076°24'0 0.1
2017-Sep-10 22:58N 38°56' W 076°24'0 0.0
2017-Sep-10 22:28N 38°56' W 076°24'0 0.0
2017-Sep-10 21:55N 38°56' W 076°24'0 0.0
2017-Sep-10 21:28N 38°56' W 076°24'0 0.0
2017-Sep-10 20:55N 38°56' W 076°24'0 0.0
2017-Sep-10 20:25N 38°56' W 076°24'0 0.0
2017-Sep-10 19:55N 38°56' W 076°24'0 0.0
2017-Sep-10 19:28N 38°56' W 076°24'0 0.0
2017-Sep-10 18:40N 38°56' W 076°24'0 0.0
2017-Sep-10 18:25N 38°56' W 076°24'0 0.0
2017-Sep-10 17:58N 38°56' W 076°24'0 0.0
2017-Sep-10 17:28N 38°56' W 076°24'0 0.0
2017-Sep-10 16:58N 38°56' W 076°24'0 0.0
2017-Sep-10 16:28N 38°56' W 076°24'0 0.0
2017-Sep-10 15:58N 38°56' W 076°24'0 0.0
2017-Sep-10 14:55N 38°56' W 076°24'0 0.0
2017-Sep-10 13:58N 38°56' W 076°24'0 0.1
2017-Sep-10 13:19N 38°56' W 076°24'0 0.0
2017-Sep-10 12:58N 38°56' W 076°24'0 0.0
2017-Sep-10 12:25N 38°56' W 076°24'0 0.1
2017-Sep-10 11:58N 38°56' W 076°24'0 0.0
2017-Sep-10 11:28N 38°56' W 076°24'0 0.0
2017-Sep-10 10:58N 38°56' W 076°24'0 0.1
2017-Sep-10 10:28N 38°56' W 076°24'0 0.0
2017-Sep-10 09:58N 38°56' W 076°24'0 0.0
2017-Sep-10 09:28N 38°56' W 076°24'0 0.0
2017-Sep-10 08:58N 38°56' W 076°24'0 0.0
2017-Sep-10 08:28N 38°56' W 076°24'0 0.0
2017-Sep-10 07:58N 38°56' W 076°24'0 0.0
2017-Sep-10 07:28N 38°56' W 076°24'1 2.3
2017-Sep-10 07:00N 38°55' W 076°24'511.0
2017-Sep-10 06:30N 38°50' W 076°25'712.9
2017-Sep-10 06:00N 38°43' W 076°26'1013.1
2017-Sep-10 05:16N 38°34' W 076°26'3213.3
2017-Sep-10 02:52N 38°04' W 076°13'613.3
2017-Sep-10 02:26N 37°58' W 076°11'4912.0
2017-Sep-09 22:19N 37°09' W 076°09'1410.9
2017-Sep-09 21:01N 36°57' W 075°59'011.1
2017-Sep-09 21:00N 36°57' W 075°59'4 7.2
2017-Sep-09 20:30N 36°55' W 075°55'3 5.0
2017-Sep-09 20:00N 36°53' W 075°53'7 6.7
2017-Sep-09 18:56N 36°50' W 075°45'3 7.3
2017-Sep-09 18:30N 36°49' W 075°41'  
Track history (hours):
 
Tides and Currents Weather Stations Pressure Air Temp Water Temp Dewpoint Dewpoint Depression Visibility Wind Speed Wind Dir Waves Ship Positions

Golden Empress

Last reported at 2017-Sep-15 08:03 UTC. Time now 2017-Sep-19 18:45 UTC.
Position N 36°49' W 075°42'.

Length 229 m; draft 14.4 m.

Type: Cargo ship. MMSI: 477962300.

Date/timePositionNaut miles runAvg speedWind from/ knotsBaromVisibWave heightAir tempDewpointWater temp
2017-Sep-15 08:03N 36°49' W 075°42'011.5
2017-Sep-15 08:00N 36°49' W 075°43'610.8
2017-Sep-15 07:28N 36°51' W 075°50'510.9
2017-Sep-15 07:00N 36°54' W 075°55'510.0
2017-Sep-15 06:30N 36°58' W 075°59'4 8.4
2017-Sep-15 06:00N 37°01' W 076°03'4 9.0
2017-Sep-15 05:30N 37°05' W 076°06'5 9.2
2017-Sep-15 04:59N 37°09' W 076°09'9 9.4
2017-Sep-15 04:00N 37°18' W 076°07'3810.1
2017-Sep-15 00:15N 37°56' W 076°10'410.8
2017-Sep-14 23:55N 37°59' W 076°12'511.8
2017-Sep-14 23:29N 38°04' W 076°13'712.2
2017-Sep-14 22:57N 38°10' W 076°14'2812.5
2017-Sep-14 20:41N 38°37' W 076°25'212.4
2017-Sep-14 20:30N 38°39' W 076°25'612.6
2017-Sep-14 20:01N 38°46' W 076°26'612.7
2017-Sep-14 19:31N 38°52' W 076°24'611.9
2017-Sep-14 19:00N 38°58' W 076°23'5 9.1
2017-Sep-14 18:31N 39°02' W 076°23'4 8.5
2017-Sep-14 18:01N 39°06' W 076°24'4 8.5
2017-Sep-14 17:31N 39°10' W 076°26'4 8.9
2017-Sep-14 17:01N 39°12' W 076°31'3 5.1
2017-Sep-14 16:31N 39°13' W 076°34'0 0.8
2017-Sep-14 15:59N 39°13' W 076°35'0 0.0
2017-Sep-14 15:29N 39°13' W 076°35'0 0.0
2017-Sep-14 14:59N 39°13' W 076°35'0 0.0
2017-Sep-14 14:29N 39°13' W 076°35'0 0.0
2017-Sep-14 13:59N 39°13' W 076°35'0 0.0
2017-Sep-14 13:29N 39°13' W 076°35'0 0.0
2017-Sep-14 12:59N 39°13' W 076°35'0 0.0
2017-Sep-14 12:29N 39°13' W 076°35'0 0.0
2017-Sep-14 11:59N 39°13' W 076°35'0 0.0
2017-Sep-14 11:29N 39°13' W 076°35'0 0.0
2017-Sep-14 10:59N 39°13' W 076°35'0 0.0
2017-Sep-14 10:29N 39°13' W 076°35'0 0.0
2017-Sep-14 09:59N 39°13' W 076°35'0 0.0
2017-Sep-14 09:29N 39°13' W 076°35'0 0.0
2017-Sep-14 08:59N 39°13' W 076°35'0 0.0
2017-Sep-14 08:29N 39°13' W 076°35'0 0.0
2017-Sep-14 07:59N 39°13' W 076°35'0 0.0
2017-Sep-14 07:29N 39°13' W 076°35'0 0.0
2017-Sep-14 06:59N 39°13' W 076°35'0 0.0
2017-Sep-14 06:29N 39°13' W 076°35'0 0.0
2017-Sep-14 05:59N 39°13' W 076°35'0 0.0
2017-Sep-14 05:29N 39°13' W 076°35'0 0.0
2017-Sep-14 04:59N 39°13' W 076°35'0 0.0
2017-Sep-14 04:29N 39°13' W 076°35'0 0.0
2017-Sep-14 03:59N 39°13' W 076°35'0 0.0
2017-Sep-14 03:29N 39°13' W 076°35'0 0.0
2017-Sep-14 02:59N 39°13' W 076°35'0 0.0
2017-Sep-14 02:29N 39°13' W 076°35'0 0.0
2017-Sep-14 01:59N 39°13' W 076°35'0 0.0
2017-Sep-14 01:29N 39°13' W 076°35'0 0.0
2017-Sep-14 00:59N 39°13' W 076°35'0 0.0
2017-Sep-14 00:29N 39°13' W 076°35'0 0.0
2017-Sep-13 23:59N 39°13' W 076°35'0 0.0
2017-Sep-13 23:29N 39°13' W 076°35'0 0.0
2017-Sep-13 22:59N 39°13' W 076°35'0 0.0
2017-Sep-13 22:29N 39°13' W 076°35'0 0.0
2017-Sep-13 21:59N 39°13' W 076°35'0 0.0
2017-Sep-13 21:29N 39°13' W 076°35'0 0.0
2017-Sep-13 20:59N 39°13' W 076°35'0 0.0
2017-Sep-13 20:29N 39°13' W 076°35'0 0.0
2017-Sep-13 19:59N 39°13' W 076°35'0 0.0
2017-Sep-13 19:29N 39°13' W 076°35'0 0.0
2017-Sep-13 18:59N 39°13' W 076°35'0 0.0
2017-Sep-13 18:29N 39°13' W 076°35'0 0.0
2017-Sep-13 17:59N 39°13' W 076°35'0 0.0
2017-Sep-13 17:29N 39°13' W 076°35'0 0.0
2017-Sep-13 16:59N 39°13' W 076°35'0 0.0
2017-Sep-13 16:29N 39°13' W 076°35'0 0.0
2017-Sep-13 15:59N 39°13' W 076°35'0 0.0
2017-Sep-13 15:29N 39°13' W 076°35'0 0.0
2017-Sep-13 14:59N 39°13' W 076°35'0 0.0
2017-Sep-13 14:29N 39°13' W 076°35'0 0.0
2017-Sep-13 13:59N 39°13' W 076°35'0 0.0
2017-Sep-13 13:29N 39°13' W 076°35'0 0.0
2017-Sep-13 12:59N 39°13' W 076°35'0 0.0
2017-Sep-13 12:29N 39°13' W 076°35'0 0.0
2017-Sep-13 11:59N 39°13' W 076°35'0 0.0
2017-Sep-13 11:29N 39°13' W 076°35'0 0.0
2017-Sep-13 10:59N 39°13' W 076°35'0 0.0
2017-Sep-13 10:29N 39°13' W 076°35'0 0.0
2017-Sep-13 09:59N 39°13' W 076°35'0 0.0
2017-Sep-13 09:29N 39°13' W 076°35'0 0.0
2017-Sep-13 08:59N 39°13' W 076°35'0 0.0
2017-Sep-13 08:29N 39°13' W 076°35'0 0.0
2017-Sep-13 07:59N 39°13' W 076°35'0 0.0
2017-Sep-13 07:29N 39°13' W 076°35'0 0.0
2017-Sep-13 06:59N 39°13' W 076°35'0 0.0
2017-Sep-13 06:29N 39°13' W 076°35'0 0.0
2017-Sep-13 05:59N 39°13' W 076°35'0 0.0
2017-Sep-13 05:29N 39°13' W 076°35'0 0.0
2017-Sep-13 04:59N 39°13' W 076°35'0 0.0
2017-Sep-13 04:29N 39°13' W 076°35'0 0.0
2017-Sep-13 03:59N 39°13' W 076°35'0 0.0
2017-Sep-13 03:29N 39°13' W 076°35'0 0.0
2017-Sep-13 02:59N 39°13' W 076°35'0 0.0
2017-Sep-13 02:29N 39°13' W 076°35'0 0.0
2017-Sep-13 01:59N 39°13' W 076°35'0 0.0
2017-Sep-13 01:29N 39°13' W 076°35'0 0.0
2017-Sep-13 00:59N 39°13' W 076°35'0 0.0
2017-Sep-13 00:29N 39°13' W 076°35'0 0.0
2017-Sep-12 23:59N 39°13' W 076°35'0 0.0
2017-Sep-12 23:29N 39°13' W 076°35'0 0.0
2017-Sep-12 22:59N 39°13' W 076°35'0 0.0
2017-Sep-12 22:29N 39°13' W 076°35'0 0.0
2017-Sep-12 21:59N 39°13' W 076°35'0 0.0
2017-Sep-12 21:29N 39°13' W 076°35'0 0.0
2017-Sep-12 20:59N 39°13' W 076°35'0 0.0
2017-Sep-12 20:29N 39°13' W 076°35'0 0.0
2017-Sep-12 19:59N 39°13' W 076°35'0 0.0
2017-Sep-12 19:29N 39°13' W 076°35'0 0.0
2017-Sep-12 18:59N 39°13' W 076°35'0 0.0
2017-Sep-12 18:29N 39°13' W 076°35'0 0.0
2017-Sep-12 17:59N 39°13' W 076°35'0 0.0
2017-Sep-12 17:29N 39°13' W 076°35'0 0.0
2017-Sep-12 16:59N 39°13' W 076°35'0 0.0
2017-Sep-12 16:29N 39°13' W 076°35'0 0.0
2017-Sep-12 15:59N 39°13' W 076°35'0 0.0
2017-Sep-12 15:29N 39°13' W 076°35'0 0.0
2017-Sep-12 14:59N 39°13' W 076°35'0 0.0
2017-Sep-12 14:29N 39°13' W 076°35'0 0.0
2017-Sep-12 13:56N 39°13' W 076°35'0 0.0
2017-Sep-12 13:29N 39°13' W 076°35'0 0.0
2017-Sep-12 12:59N 39°13' W 076°35'0 0.0
2017-Sep-12 12:29N 39°13' W 076°35'0 0.0
2017-Sep-12 11:59N 39°13' W 076°35'0 0.0
2017-Sep-12 11:29N 39°13' W 076°35'0 0.0
2017-Sep-12 10:59N 39°13' W 076°35'0 0.0
2017-Sep-12 10:29N 39°13' W 076°35'0 0.0
2017-Sep-12 09:59N 39°13' W 076°35'0 0.0
2017-Sep-12 09:29N 39°13' W 076°35'0 0.0
2017-Sep-12 08:59N 39°13' W 076°35'0 0.0
2017-Sep-12 08:29N 39°13' W 076°35'0 0.0
2017-Sep-12 07:59N 39°13' W 076°35'0 0.0
2017-Sep-12 07:29N 39°13' W 076°35'0 0.0
2017-Sep-12 06:59N 39°13' W 076°35'0 0.0
2017-Sep-12 06:29N 39°13' W 076°35'0 0.0
2017-Sep-12 05:59N 39°13' W 076°35'0 0.0
2017-Sep-12 05:29N 39°13' W 076°35'0 0.0
2017-Sep-12 04:59N 39°13' W 076°35'0 0.0
2017-Sep-12 04:29N 39°13' W 076°35'0 0.0
2017-Sep-12 03:59N 39°13' W 076°35'0 0.0
2017-Sep-12 03:29N 39°13' W 076°35'0 0.0
2017-Sep-12 02:59N 39°13' W 076°35'0 0.0
2017-Sep-12 02:29N 39°13' W 076°35'0 0.0
2017-Sep-12 01:59N 39°13' W 076°35'0 0.0
2017-Sep-12 01:29N 39°13' W 076°35'0 0.0
2017-Sep-12 00:59N 39°13' W 076°35'0 0.0
2017-Sep-12 00:29N 39°13' W 076°35'0 0.0
2017-Sep-11 23:59N 39°13' W 076°35'0 0.0
2017-Sep-11 23:29N 39°13' W 076°35'0 0.0
2017-Sep-11 22:59N 39°13' W 076°35'0 0.0
2017-Sep-11 22:29N 39°13' W 076°35'0 0.0
2017-Sep-11 21:59N 39°13' W 076°35'0 0.0
2017-Sep-11 21:29N 39°13' W 076°35'0 0.0
2017-Sep-11 20:59N 39°13' W 076°35'0 0.0
2017-Sep-11 20:29N 39°13' W 076°35'0 0.0
2017-Sep-11 19:59N 39°13' W 076°35'0 0.0
2017-Sep-11 19:29N 39°13' W 076°35'0 0.0
2017-Sep-11 18:59N 39°13' W 076°35'0 0.0
2017-Sep-11 18:29N 39°13' W 076°35'0 0.0
2017-Sep-11 17:59N 39°13' W 076°35'0 0.0
2017-Sep-11 17:29N 39°13' W 076°35'0 0.0
2017-Sep-11 16:59N 39°13' W 076°35'0 0.0
2017-Sep-11 16:29N 39°13' W 076°35'0 0.0
2017-Sep-11 15:59N 39°13' W 076°35'0 0.0
2017-Sep-11 15:29N 39°13' W 076°35'0 0.0
2017-Sep-11 14:59N 39°13' W 076°35'0 0.0
2017-Sep-11 14:29N 39°13' W 076°35'0 0.0
2017-Sep-11 13:59N 39°13' W 076°35'0 0.0
2017-Sep-11 13:29N 39°13' W 076°35'0 0.0
2017-Sep-11 12:59N 39°13' W 076°35'0 0.0
2017-Sep-11 12:29N 39°13' W 076°35'0 0.0
2017-Sep-11 11:59N 39°13' W 076°35'0 0.0
2017-Sep-11 11:29N 39°13' W 076°35'0 0.0
2017-Sep-11 10:59N 39°13' W 076°35'0 0.0
2017-Sep-11 10:29N 39°13' W 076°35'0 0.0
2017-Sep-11 09:59N 39°13' W 076°35'0 0.0
2017-Sep-11 09:29N 39°13' W 076°35'0 0.1
2017-Sep-11 09:01N 39°13' W 076°35'2 3.2
2017-Sep-11 08:31N 39°13' W 076°32'4 7.4
2017-Sep-11 08:01N 39°11' W 076°28'612.0
2017-Sep-11 07:31N 39°07' W 076°24'713.3
2017-Sep-11 07:01N 39°00' W 076°23'4 7.2
2017-Sep-11 06:31N 38°57' W 076°24'0 0.2
2017-Sep-11 05:58N 38°56' W 076°24'0 0.0
2017-Sep-11 05:28N 38°56' W 076°24'0 0.0
2017-Sep-11 04:58N 38°56' W 076°24'0 0.1
2017-Sep-11 04:28N 38°56' W 076°24'0 0.1
2017-Sep-11 03:58N 38°56' W 076°24'0 0.3
2017-Sep-11 03:28N 38°57' W 076°24'0 0.1
2017-Sep-11 02:58N 38°57' W 076°24'0 0.1
2017-Sep-11 02:28N 38°57' W 076°24'0 0.1
2017-Sep-11 01:58N 38°57' W 076°24'0 0.0
2017-Sep-11 01:28N 38°57' W 076°24'0 0.0
2017-Sep-11 00:58N 38°57' W 076°24'0 0.2
2017-Sep-11 00:28N 38°57' W 076°24'0 0.3
2017-Sep-10 23:58N 38°57' W 076°24'0 0.2
2017-Sep-10 23:28N 38°56' W 076°24'0 0.1
2017-Sep-10 22:58N 38°56' W 076°24'0 0.0
2017-Sep-10 22:28N 38°56' W 076°24'0 0.0
2017-Sep-10 21:55N 38°56' W 076°24'0 0.0
2017-Sep-10 21:28N 38°56' W 076°24'0 0.0
2017-Sep-10 20:55N 38°56' W 076°24'0 0.0
2017-Sep-10 20:25N 38°56' W 076°24'0 0.0
2017-Sep-10 19:55N 38°56' W 076°24'0 0.0
2017-Sep-10 19:28N 38°56' W 076°24'0 0.0
2017-Sep-10 18:40N 38°56' W 076°24'0 0.0
2017-Sep-10 18:25N 38°56' W 076°24'0 0.0
2017-Sep-10 17:58N 38°56' W 076°24'0 0.0
2017-Sep-10 17:28N 38°56' W 076°24'0 0.0
2017-Sep-10 16:58N 38°56' W 076°24'0 0.0
2017-Sep-10 16:28N 38°56' W 076°24'0 0.0
2017-Sep-10 15:58N 38°56' W 076°24'0 0.0
2017-Sep-10 14:55N 38°56' W 076°24'0 0.0
2017-Sep-10 13:58N 38°56' W 076°24'0 0.1
2017-Sep-10 13:19N 38°56' W 076°24'0 0.0
2017-Sep-10 12:58N 38°56' W 076°24'0 0.0
2017-Sep-10 12:25N 38°56' W 076°24'0 0.1
2017-Sep-10 11:58N 38°56' W 076°24'0 0.0
2017-Sep-10 11:28N 38°56' W 076°24'0 0.0
2017-Sep-10 10:58N 38°56' W 076°24'0 0.1
2017-Sep-10 10:28N 38°56' W 076°24'0 0.0
2017-Sep-10 09:58N 38°56' W 076°24'0 0.0
2017-Sep-10 09:28N 38°56' W 076°24'0 0.0
2017-Sep-10 08:58N 38°56' W 076°24'0 0.0
2017-Sep-10 08:28N 38°56' W 076°24'0 0.0
2017-Sep-10 07:58N 38°56' W 076°24'0 0.0
2017-Sep-10 07:28N 38°56' W 076°24'1 2.3
2017-Sep-10 07:00N 38°55' W 076°24'511.0
2017-Sep-10 06:30N 38°50' W 076°25'712.9
2017-Sep-10 06:00N 38°43' W 076°26'1013.1
2017-Sep-10 05:16N 38°34' W 076°26'3213.3
2017-Sep-10 02:52N 38°04' W 076°13'613.3
2017-Sep-10 02:26N 37°58' W 076°11'4912.0
2017-Sep-09 22:19N 37°09' W 076°09'1410.9
2017-Sep-09 21:01N 36°57' W 075°59'011.1
2017-Sep-09 21:00N 36°57' W 075°59'4 7.2
2017-Sep-09 20:30N 36°55' W 075°55'3 5.0
2017-Sep-09 20:00N 36°53' W 075°53'7 6.7
2017-Sep-09 18:56N 36°50' W 075°45'3 7.3
2017-Sep-09 18:30N 36°49' W 075°41'  

Dump ship's entire track history